This is the latest recevied weather packets stored in our database for station/object KQ4OSL. If no packets are shown the sender has not sent any weather packets the latest 10 day(s).
| Time | Temp. | Humidity | Pressure | Rain* | Wind** | Luminosity | Snow |
|---|---|---|---|---|---|---|---|
| 1787942528 | 32.22° C | 63% | 1018.9 hPa | 0 mm | - | 703 W/m² | - |
| 1787942222 | 31.11° C | 66% | 1019 hPa | 0 mm | - | 709 W/m² | - |
| 1787941917 | 31.11° C | 60% | 1019.2 hPa | 0 mm | - | 335 W/m² | - |
| 1787941616 | 30.56° C | 67% | 1019.1 hPa | 0 mm | - | 283 W/m² | - |
| 1787941316 | 30.56° C | 67% | 1019.1 hPa | 0 mm | - | 133 W/m² | - |
| 1787941016 | 30.56° C | 64% | 1019.3 hPa | 0 mm | - | 392 W/m² | - |
| 1787940715 | 30.56° C | 67% | 1019.4 hPa | 0 mm | - | 134 W/m² | - |
| 1787940414 | 30.56° C | 67% | 1019.2 hPa | 0 mm | - | 190 W/m² | - |
| 1787940114 | 30.56° C | 69% | 1019.4 hPa | 0 mm | - | 178 W/m² | - |
| 1787939808 | 31.67° C | 66% | 1019.5 hPa | 0 mm | - | 222 W/m² | - |
| 1787914657 | 20.56° C | 99% | 1018.4 hPa | 0 mm | - | 0 W/m² | - |
| 1787914352 | 20.56° C | 99% | 1018.3 hPa | 1.78 mm | - | 0 W/m² | - |
| 1787914051 | 20.56° C | 99% | 1018.3 hPa | 1.78 mm | - | 0 W/m² | - |
| 1787913750 | 21.11° C | 99% | 1018.2 hPa | 0 mm | - | 0 W/m² | - |
| 1787913445 | 21.11° C | 99% | 1018.1 hPa | 0 mm | - | 0 W/m² | - |
| 1787913140 | 21.11° C | 99% | 1018.2 hPa | 0 mm | - | 0 W/m² | - |
| 1787912839 | 21.11° C | 99% | 1018.1 hPa | 0 mm | - | 0 W/m² | - |
| 1787912534 | 21.11° C | 99% | 1018 hPa | 0 mm | - | 0 W/m² | - |
| 1787912232 | 21.11° C | 99% | 1018 hPa | 0 mm | - | 0 W/m² | - |
| 1787911927 | 21.11° C | 99% | 1018.1 hPa | 0 mm | - | 0 W/m² | - |
| 1787911623 | 21.11° C | 99% | 1018.1 hPa | 0 mm | - | 0 W/m² | - |
| 1787911322 | 21.11° C | 99% | 1018.2 hPa | 0 mm | - | 0 W/m² | - |
| 1787911018 | 21.11° C | 99% | 1018 hPa | 0 mm | - | 0 W/m² | - |
| 1787910715 | 21.11° C | 99% | 1017.8 hPa | 0 mm | - | 0 W/m² | - |
| 1787910414 | 21.11° C | 99% | 1018 hPa | 0 mm | - | 0 W/m² | - |
* Rain latest hour (hover to see other rain measurements)
** Current wind speed in m/s (hover to see current wind gust speed)